sensor_id;sensor_type;location;lat;lon;timestamp;pressure;altitude;pressure_sealevel;temperature
58102;BMP280;52034;51.926;6.320;2023-05-08T00:00:48;101996.50;;;16.15
58102;BMP280;52034;51.926;6.320;2023-05-08T00:01:48;101995.84;;;16.16
58102;BMP280;52034;51.926;6.320;2023-05-08T00:02:48;101993.66;;;16.15
58102;BMP280;52034;51.926;6.320;2023-05-08T00:03:50;101987.16;;;16.10
58102;BMP280;52034;51.926;6.320;2023-05-08T00:04:50;101985.75;;;16.11
58102;BMP280;52034;51.926;6.320;2023-05-08T00:05:51;101988.53;;;16.09
58102;BMP280;52034;51.926;6.320;2023-05-08T00:06:51;101988.34;;;16.03
58102;BMP280;52034;51.926;6.320;2023-05-08T00:07:52;101986.94;;;16.04
58102;BMP280;52034;51.926;6.320;2023-05-08T00:08:54;101987.56;;;16.01
58102;BMP280;52034;51.926;6.320;2023-05-08T00:09:54;101989.59;;;15.98
58102;BMP280;52034;51.926;6.320;2023-05-08T00:10:54;101978.78;;;15.93
58102;BMP280;52034;51.926;6.320;2023-05-08T00:11:54;101988.75;;;15.94
58102;BMP280;52034;51.926;6.320;2023-05-08T00:12:55;101983.06;;;15.94
58102;BMP280;52034;51.926;6.320;2023-05-08T00:13:56;101985.19;;;15.93
58102;BMP280;52034;51.926;6.320;2023-05-08T00:14:56;101988.00;;;15.93
58102;BMP280;52034;51.926;6.320;2023-05-08T00:15:56;101984.41;;;15.91
58102;BMP280;52034;51.926;6.320;2023-05-08T00:16:57;101978.00;;;15.90
58102;BMP280;52034;51.926;6.320;2023-05-08T00:17:57;101982.88;;;15.88
58102;BMP280;52034;51.926;6.320;2023-05-08T00:18:58;101978.59;;;15.87
58102;BMP280;52034;51.926;6.320;2023-05-08T00:19:59;101982.81;;;15.86
58102;BMP280;52034;51.926;6.320;2023-05-08T00:21:00;101982.81;;;15.86
58102;BMP280;52034;51.926;6.320;2023-05-08T00:22:00;101979.97;;;15.86
58102;BMP280;52034;51.926;6.320;2023-05-08T00:23:00;101976.94;;;15.80
58102;BMP280;52034;51.926;6.320;2023-05-08T00:24:01;101974.09;;;15.80
58102;BMP280;52034;51.926;6.320;2023-05-08T00:25:01;101978.44;;;15.83
58102;BMP280;52034;51.926;6.320;2023-05-08T00:26:03;101975.50;;;15.79
58102;BMP280;52034;51.926;6.320;2023-05-08T00:27:04;101983.25;;;15.78
58102;BMP280;52034;51.926;6.320;2023-05-08T00:28:04;101978.75;;;15.71
58102;BMP280;52034;51.926;6.320;2023-05-08T00:29:04;101976.06;;;15.75
58102;BMP280;52034;51.926;6.320;2023-05-08T00:30:06;101971.78;;;15.74
58102;BMP280;52034;51.926;6.320;2023-05-08T00:31:06;101986.69;;;15.75
58102;BMP280;52034;51.926;6.320;2023-05-08T00:32:06;101973.97;;;15.76
58102;BMP280;52034;51.926;6.320;2023-05-08T00:33:07;101983.13;;;15.74
58102;BMP280;52034;51.926;6.320;2023-05-08T00:34:07;101981.03;;;15.75
58102;BMP280;52034;51.926;6.320;2023-05-08T00:35:08;101972.41;;;15.71
58102;BMP280;52034;51.926;6.320;2023-05-08T00:36:08;101975.88;;;15.69
58102;BMP280;52034;51.926;6.320;2023-05-08T00:37:09;101975.06;;;15.67
58102;BMP280;52034;51.926;6.320;2023-05-08T00:38:09;101984.28;;;15.67
58102;BMP280;52034;51.926;6.320;2023-05-08T00:39:10;101973.56;;;15.64
58102;BMP280;52034;51.926;6.320;2023-05-08T00:40:11;101978.56;;;15.65
58102;BMP280;52034;51.926;6.320;2023-05-08T00:41:12;101982.69;;;15.62
58102;BMP280;52034;51.926;6.320;2023-05-08T00:42:12;101983.44;;;15.63
58102;BMP280;52034;51.926;6.320;2023-05-08T00:43:13;101964.94;;;15.60
58102;BMP280;52034;51.926;6.320;2023-05-08T00:44:13;101971.47;;;15.64
58102;BMP280;52034;51.926;6.320;2023-05-08T00:45:14;101985.63;;;15.64
58102;BMP280;52034;51.926;6.320;2023-05-08T00:46:14;101982.03;;;15.64
58102;BMP280;52034;51.926;6.320;2023-05-08T00:47:15;101980.69;;;15.65
58102;BMP280;52034;51.926;6.320;2023-05-08T00:48:16;101975.59;;;15.61
58102;BMP280;52034;51.926;6.320;2023-05-08T00:49:17;101975.47;;;15.57
58102;BMP280;52034;51.926;6.320;2023-05-08T00:50:18;101977.66;;;15.59
58102;BMP280;52034;51.926;6.320;2023-05-08T00:51:18;101986.13;;;15.59
58102;BMP280;52034;51.926;6.320;2023-05-08T00:52:19;101976.91;;;15.58
58102;BMP280;52034;51.926;6.320;2023-05-08T00:53:21;101983.31;;;15.59
58102;BMP280;52034;51.926;6.320;2023-05-08T00:54:22;101966.22;;;15.57
58102;BMP280;52034;51.926;6.320;2023-05-08T00:55:22;101974.06;;;15.58
58102;BMP280;52034;51.926;6.320;2023-05-08T00:56:23;101974.69;;;15.55
58102;BMP280;52034;51.926;6.320;2023-05-08T00:57:24;101981.56;;;15.50
58102;BMP280;52034;51.926;6.320;2023-05-08T00:58:26;101979.47;;;15.50
58102;BMP280;52034;51.926;6.320;2023-05-08T00:59:26;101975.16;;;15.49
58102;BMP280;52034;51.926;6.320;2023-05-08T01:00:27;101972.31;;;15.49
58102;BMP280;52034;51.926;6.320;2023-05-08T01:01:28;101969.50;;;15.49
58102;BMP280;52034;51.926;6.320;2023-05-08T01:02:29;101975.84;;;15.48
58102;BMP280;52034;51.926;6.320;2023-05-08T01:03:34;101973.03;;;15.48
58102;BMP280;52034;51.926;6.320;2023-05-08T01:04:35;101973.56;;;15.44
58102;BMP280;52034;51.926;6.320;2023-05-08T01:05:36;101970.09;;;15.46
58102;BMP280;52034;51.926;6.320;2023-05-08T01:06:37;101968.50;;;15.41
58102;BMP280;52034;51.926;6.320;2023-05-08T01:07:37;101966.41;;;15.41
58102;BMP280;52034;51.926;6.320;2023-05-08T01:08:38;101969.31;;;15.43
58102;BMP280;52034;51.926;6.320;2023-05-08T01:09:38;101967.66;;;15.36
58102;BMP280;52034;51.926;6.320;2023-05-08T01:13:41;101970.50;;;15.36
58102;BMP280;52034;51.926;6.320;2023-05-08T01:16:13;101974.47;;;15.29
58102;BMP280;52034;51.926;6.320;2023-05-08T01:17:28;101968.09;;;15.29
58102;BMP280;52034;51.926;6.320;2023-05-08T01:18:39;101962.28;;;15.25
58102;BMP280;52034;51.926;6.320;2023-05-08T01:20:07;101967.78;;;15.21
58102;BMP280;52034;51.926;6.320;2023-05-08T01:21:45;101969.19;;;15.20
58102;BMP280;52034;51.926;6.320;2023-05-08T01:24:36;101971.22;;;15.17
58102;BMP280;52034;51.926;6.320;2023-05-08T01:26:10;101970.47;;;15.17
58102;BMP280;52034;51.926;6.320;2023-05-08T01:32:55;101983.59;;;15.28
58102;BMP280;52034;51.926;6.320;2023-05-08T01:34:05;101984.31;;;15.28
58102;BMP280;52034;51.926;6.320;2023-05-08T01:35:29;101987.97;;;15.31
58102;BMP280;52034;51.926;6.320;2023-05-08T01:36:37;101986.59;;;15.32
58102;BMP280;52034;51.926;6.320;2023-05-08T01:38:14;101983.09;;;15.33
58102;BMP280;52034;51.926;6.320;2023-05-08T01:39:29;101985.78;;;15.29
58102;BMP280;52034;51.926;6.320;2023-05-08T01:40:39;101991.44;;;15.29
58102;BMP280;52034;51.926;6.320;2023-05-08T01:42:32;101992.16;;;15.30
58102;BMP280;52034;51.926;6.320;2023-05-08T01:43:15;101990.72;;;15.29
58102;BMP280;52034;51.926;6.320;2023-05-08T01:44:21;101981.44;;;15.26
58102;BMP280;52034;51.926;6.320;2023-05-08T01:45:33;101981.44;;;15.26
58102;BMP280;52034;51.926;6.320;2023-05-08T01:46:37;101986.41;;;15.28
58102;BMP280;52034;51.926;6.320;2023-05-08T01:47:38;101982.94;;;15.29
58102;BMP280;52034;51.926;6.320;2023-05-08T01:48:46;101990.09;;;15.30
58102;BMP280;52034;51.926;6.320;2023-05-08T01:49:55;101980.22;;;15.31
58102;BMP280;52034;51.926;6.320;2023-05-08T01:51:02;101987.38;;;15.34
58102;BMP280;52034;51.926;6.320;2023-05-08T01:52:12;101991.66;;;15.35
58102;BMP280;52034;51.926;6.320;2023-05-08T01:53:20;101984.56;;;15.34
58102;BMP280;52034;51.926;6.320;2023-05-08T01:54:24;101986.63;;;15.34
58102;BMP280;52034;51.926;6.320;2023-05-08T01:55:34;101987.38;;;15.34
58102;BMP280;52034;51.926;6.320;2023-05-08T01:56:36;101988.06;;;15.33
58102;BMP280;52034;51.926;6.320;2023-05-08T01:57:42;101992.25;;;15.32
58102;BMP280;52034;51.926;6.320;2023-05-08T01:58:46;101984.47;;;15.32
58102;BMP280;52034;51.926;6.320;2023-05-08T01:59:50;101989.44;;;15.32
58102;BMP280;52034;51.926;6.320;2023-05-08T02:00:51;101992.25;;;15.32
58102;BMP280;52034;51.926;6.320;2023-05-08T02:01:54;101990.22;;;15.34
58102;BMP280;52034;51.926;6.320;2023-05-08T02:02:56;101985.28;;;15.35
58102;BMP280;52034;51.926;6.320;2023-05-08T02:03:59;101988.91;;;15.37
58102;BMP280;52034;51.926;6.320;2023-05-08T02:05:02;101988.19;;;15.37
58102;BMP280;52034;51.926;6.320;2023-05-08T02:06:06;101991.75;;;15.37
58102;BMP280;52034;51.926;6.320;2023-05-08T02:07:06;101983.91;;;15.36
58102;BMP280;52034;51.926;6.320;2023-05-08T02:08:08;101988.81;;;15.35
58102;BMP280;52034;51.926;6.320;2023-05-08T02:09:10;101981.66;;;15.32
58102;BMP280;52034;51.926;6.320;2023-05-08T02:10:12;101987.25;;;15.30
58102;BMP280;52034;51.926;6.320;2023-05-08T02:11:14;101987.88;;;15.29
58102;BMP280;52034;51.926;6.320;2023-05-08T02:12:16;101986.38;;;15.26
58102;BMP280;52034;51.926;6.320;2023-05-08T02:13:18;101987.03;;;15.24
58102;BMP280;52034;51.926;6.320;2023-05-08T02:14:21;101991.91;;;15.22
58102;BMP280;52034;51.926;6.320;2023-05-08T02:15:23;101988.25;;;15.19
58102;BMP280;52034;51.926;6.320;2023-05-08T02:16:26;101993.19;;;15.19
58102;BMP280;52034;51.926;6.320;2023-05-08T02:17:28;101989.56;;;15.16
58102;BMP280;52034;51.926;6.320;2023-05-08T02:18:30;101986.56;;;15.12
58102;BMP280;52034;51.926;6.320;2023-05-08T02:19:32;101993.53;;;15.09
58102;BMP280;52034;51.926;6.320;2023-05-08T02:20:34;101987.81;;;15.07
58102;BMP280;52034;51.926;6.320;2023-05-08T02:21:35;101983.28;;;15.00
58102;BMP280;52034;51.926;6.320;2023-05-08T02:22:36;101984.03;;;15.01
58102;BMP280;52034;51.926;6.320;2023-05-08T02:23:37;101983.25;;;14.98
58102;BMP280;52034;51.926;6.320;2023-05-08T02:24:37;101978.22;;;14.97
58102;BMP280;52034;51.926;6.320;2023-05-08T02:25:38;101985.34;;;14.98
58102;BMP280;52034;51.926;6.320;2023-05-08T02:26:41;101984.63;;;14.98
58102;BMP280;52034;51.926;6.320;2023-05-08T02:27:45;101981.69;;;14.95
58102;BMP280;52034;51.926;6.320;2023-05-08T02:28:47;101987.34;;;14.95
58102;BMP280;52034;51.926;6.320;2023-05-08T02:29:50;101985.09;;;14.92
58102;BMP280;52034;51.926;6.320;2023-05-08T02:30:51;101992.22;;;14.93
58102;BMP280;52034;51.926;6.320;2023-05-08T02:31:53;101988.56;;;14.90
58102;BMP280;52034;51.926;6.320;2023-05-08T02:32:57;101993.50;;;14.90
58102;BMP280;52034;51.926;6.320;2023-05-08T02:33:58;101990.69;;;14.90
58102;BMP280;52034;51.926;6.320;2023-05-08T02:34:59;101998.44;;;14.89
58102;BMP280;52034;51.926;6.320;2023-05-08T02:36:01;101998.44;;;14.89
58102;BMP280;52034;51.926;6.320;2023-05-08T02:37:02;101999.09;;;14.88
58102;BMP280;52034;51.926;6.320;2023-05-08T02:38:04;102000.53;;;14.89
58102;BMP280;52034;51.926;6.320;2023-05-08T02:39:10;102003.44;;;14.91
58102;BMP280;52034;51.926;6.320;2023-05-08T02:40:13;101996.34;;;14.90
58102;BMP280;52034;51.926;6.320;2023-05-08T02:41:18;101999.09;;;14.88
58102;BMP280;52034;51.926;6.320;2023-05-08T02:42:19;101994.09;;;14.87
58102;BMP280;52034;51.926;6.320;2023-05-08T02:43:20;101991.91;;;14.85
58102;BMP280;52034;51.926;6.320;2023-05-08T02:44:20;101991.75;;;14.81
58102;BMP280;52034;51.926;6.320;2023-05-08T02:45:26;102000.25;;;14.81
58102;BMP280;52034;51.926;6.320;2023-05-08T02:46:55;102000.38;;;14.85
58102;BMP280;52034;51.926;6.320;2023-05-08T02:48:02;102002.34;;;14.81
58102;BMP280;52034;51.926;6.320;2023-05-08T02:49:19;102000.25;;;14.81
58102;BMP280;52034;51.926;6.320;2023-05-08T02:50:26;101998.78;;;14.80
58102;BMP280;52034;51.926;6.320;2023-05-08T02:51:52;101998.78;;;14.80
58102;BMP280;52034;51.926;6.320;2023-05-08T02:53:02;102005.91;;;14.81
58102;BMP280;52034;51.926;6.320;2023-05-08T02:54:08;101996.53;;;14.77
58102;BMP280;52034;51.926;6.320;2023-05-08T02:55:17;101997.81;;;14.74
58102;BMP280;52034;51.926;6.320;2023-05-08T02:56:33;101998.41;;;14.70
58102;BMP280;52034;51.926;6.320;2023-05-08T02:59:15;101996.81;;;14.65
58102;BMP280;52034;51.926;6.320;2023-05-08T03:01:25;101992.44;;;14.62
58102;BMP280;52034;51.926;6.320;2023-05-08T03:02:38;101990.97;;;14.61
58102;BMP280;52034;51.926;6.320;2023-05-08T03:03:44;101990.84;;;14.57
58102;BMP280;52034;51.926;6.320;2023-05-08T03:04:54;101983.56;;;14.52
58102;BMP280;52034;51.926;6.320;2023-05-08T03:05:56;101984.78;;;14.47
58102;BMP280;52034;51.926;6.320;2023-05-08T03:07:00;101986.88;;;14.47
58102;BMP280;52034;51.926;6.320;2023-05-08T03:08:12;101986.00;;;14.42
58102;BMP280;52034;51.926;6.320;2023-05-08T03:09:20;101985.91;;;14.40
58102;BMP280;52034;51.926;6.320;2023-05-08T03:10:27;101985.19;;;14.40
58102;BMP280;52034;51.926;6.320;2023-05-08T03:11:36;101982.25;;;14.38
58102;BMP280;52034;51.926;6.320;2023-05-08T03:12:40;101983.00;;;14.38
58102;BMP280;52034;51.926;6.320;2023-05-08T03:13:43;101980.19;;;14.38
58102;BMP280;52034;51.926;6.320;2023-05-08T03:14:53;101984.44;;;14.39
58102;BMP280;52034;51.926;6.320;2023-05-08T03:15:57;101975.22;;;14.39
58102;BMP280;52034;51.926;6.320;2023-05-08T03:16:59;101977.34;;;14.38
58102;BMP280;52034;51.926;6.320;2023-05-08T03:18:08;101982.94;;;14.36
58102;BMP280;52034;51.926;6.320;2023-05-08T03:19:16;101980.88;;;14.39
58102;BMP280;52034;51.926;6.320;2023-05-08T03:20:18;101981.63;;;14.39
58102;BMP280;52034;51.926;6.320;2023-05-08T03:21:20;101987.38;;;14.41
58102;BMP280;52034;51.926;6.320;2023-05-08T03:22:22;101978.16;;;14.41
58102;BMP280;52034;51.926;6.320;2023-05-08T03:23:27;101988.81;;;14.42
58102;BMP280;52034;51.926;6.320;2023-05-08T03:24:29;101980.88;;;14.39
58102;BMP280;52034;51.926;6.320;2023-05-08T03:25:31;101984.44;;;14.39
58102;BMP280;52034;51.926;6.320;2023-05-08T03:26:33;101979.53;;;14.40
58102;BMP280;52034;51.926;6.320;2023-05-08T03:27:34;101990.25;;;14.43
58102;BMP280;52034;51.926;6.320;2023-05-08T03:28:36;101987.41;;;14.43
58102;BMP280;52034;51.926;6.320;2023-05-08T03:29:38;101986.06;;;14.44
58102;BMP280;52034;51.926;6.320;2023-05-08T03:30:40;101981.97;;;14.47
58102;BMP280;52034;51.926;6.320;2023-05-08T03:31:44;101991.16;;;14.48
58102;BMP280;52034;51.926;6.320;2023-05-08T03:32:46;101994.06;;;14.50
58102;BMP280;52034;51.926;6.320;2023-05-08T03:33:49;101992.13;;;14.54
58102;BMP280;52034;51.926;6.320;2023-05-08T03:34:54;101992.28;;;14.58
58102;BMP280;52034;51.926;6.320;2023-05-08T03:35:55;101996.63;;;14.61
58102;BMP280;52034;51.926;6.320;2023-05-08T03:36:56;101988.16;;;14.61
58102;BMP280;52034;51.926;6.320;2023-05-08T03:37:57;101988.88;;;14.62
58102;BMP280;52034;51.926;6.320;2023-05-08T03:38:58;101987.59;;;14.65
58102;BMP280;52034;51.926;6.320;2023-05-08T03:39:59;101982.56;;;14.63
58102;BMP280;52034;51.926;6.320;2023-05-08T03:40:59;101984.13;;;14.66
58102;BMP280;52034;51.926;6.320;2023-05-08T03:42:00;101979.75;;;14.63
58102;BMP280;52034;51.926;6.320;2023-05-08T03:43:00;101984.13;;;14.66
58102;BMP280;52034;51.926;6.320;2023-05-08T03:44:02;101984.94;;;14.69
58102;BMP280;52034;51.926;6.320;2023-05-08T03:45:04;101974.97;;;14.68
58102;BMP280;52034;51.926;6.320;2023-05-08T03:46:06;101978.47;;;14.66
58102;BMP280;52034;51.926;6.320;2023-05-08T03:47:06;101973.44;;;14.65
58102;BMP280;52034;51.926;6.320;2023-05-08T03:48:08;101977.56;;;14.62
58102;BMP280;52034;51.926;6.320;2023-05-08T03:49:11;101974.75;;;14.62
58102;BMP280;52034;51.926;6.320;2023-05-08T03:50:12;101979.03;;;14.63
58102;BMP280;52034;51.926;6.320;2023-05-08T03:51:14;101981.84;;;14.63
58102;BMP280;52034;51.926;6.320;2023-05-08T03:52:15;101975.41;;;14.60
58102;BMP280;52034;51.926;6.320;2023-05-08T03:53:16;101976.09;;;14.61
58102;BMP280;52034;51.926;6.320;2023-05-08T03:54:16;101975.47;;;14.62
58102;BMP280;52034;51.926;6.320;2023-05-08T03:55:18;101978.16;;;14.58
58102;BMP280;52034;51.926;6.320;2023-05-08T03:56:19;101975.19;;;14.54
58102;BMP280;52034;51.926;6.320;2023-05-08T03:57:20;101974.69;;;14.60
58102;BMP280;52034;51.926;6.320;2023-05-08T03:58:32;101976.59;;;14.55
58102;BMP280;52034;51.926;6.320;2023-05-08T03:59:53;101987.91;;;14.55
58102;BMP280;52034;51.926;6.320;2023-05-08T04:01:19;101984.78;;;14.47
58102;BMP280;52034;51.926;6.320;2023-05-08T04:03:42;101987.41;;;14.43
58102;BMP280;52034;51.926;6.320;2023-05-08T04:04:46;101988.25;;;14.46
58102;BMP280;52034;51.926;6.320;2023-05-08T04:06:14;101988.97;;;14.46
58102;BMP280;52034;51.926;6.320;2023-05-08T04:07:24;101993.16;;;14.45
58102;BMP280;52034;51.926;6.320;2023-05-08T04:08:33;101989.72;;;14.47
58102;BMP280;52034;51.926;6.320;2023-05-08T04:09:47;101996.94;;;14.52
58102;BMP280;52034;51.926;6.320;2023-05-08T04:10:56;101997.06;;;14.54
58102;BMP280;52034;51.926;6.320;2023-05-08T04:12:02;101993.56;;;14.55
58102;BMP280;52034;51.926;6.320;2023-05-08T04:13:18;101997.28;;;14.60
58102;BMP280;52034;51.926;6.320;2023-05-08T04:14:23;101998.69;;;14.59
58102;BMP280;52034;51.926;6.320;2023-05-08T04:15:28;101997.28;;;14.60
58102;BMP280;52034;51.926;6.320;2023-05-08T04:16:32;101990.97;;;14.61
58102;BMP280;52034;51.926;6.320;2023-05-08T04:17:48;101983.91;;;14.60
58102;BMP280;52034;51.926;6.320;2023-05-08T04:18:49;101986.78;;;14.62
58102;BMP280;52034;51.926;6.320;2023-05-08T04:19:59;101991.78;;;14.64
58102;BMP280;52034;51.926;6.320;2023-05-08T04:21:00;101986.78;;;14.62
58102;BMP280;52034;51.926;6.320;2023-05-08T04:22:05;101996.00;;;14.63
58102;BMP280;52034;51.926;6.320;2023-05-08T04:23:08;101992.53;;;14.64
58102;BMP280;52034;51.926;6.320;2023-05-08T04:24:11;101992.44;;;14.62
58102;BMP280;52034;51.926;6.320;2023-05-08T04:25:14;101993.97;;;14.65
58102;BMP280;52034;51.926;6.320;2023-05-08T04:26:16;101996.88;;;14.67
58102;BMP280;52034;51.926;6.320;2023-05-08T04:27:17;101999.06;;;14.69
58102;BMP280;52034;51.926;6.320;2023-05-08T04:28:19;101992.66;;;14.68
58102;BMP280;52034;51.926;6.320;2023-05-08T04:29:20;101992.03;;;14.70
58102;BMP280;52034;51.926;6.320;2023-05-08T04:30:22;101996.22;;;14.69
58102;BMP280;52034;51.926;6.320;2023-05-08T04:31:23;101990.56;;;14.69
58102;BMP280;52034;51.926;6.320;2023-05-08T04:32:24;101991.28;;;14.69
58102;BMP280;52034;51.926;6.320;2023-05-08T04:33:25;101994.22;;;14.71
58102;BMP280;52034;51.926;6.320;2023-05-08T04:34:27;101990.66;;;14.71
58102;BMP280;52034;51.926;6.320;2023-05-08T04:35:28;101997.69;;;14.70
58102;BMP280;52034;51.926;6.320;2023-05-08T04:36:31;101997.78;;;14.72
58102;BMP280;52034;51.926;6.320;2023-05-08T04:37:33;101999.88;;;14.71
58102;BMP280;52034;51.926;6.320;2023-05-08T04:38:36;102003.34;;;14.70
58102;BMP280;52034;51.926;6.320;2023-05-08T04:39:37;102005.53;;;14.71
58102;BMP280;52034;51.926;6.320;2023-05-08T04:40:38;101995.50;;;14.68
58102;BMP280;52034;51.926;6.320;2023-05-08T04:41:38;101995.59;;;14.70
58102;BMP280;52034;51.926;6.320;2023-05-08T04:42:39;101993.41;;;14.69
58102;BMP280;52034;51.926;6.320;2023-05-08T04:43:42;102001.16;;;14.68
58102;BMP280;52034;51.926;6.320;2023-05-08T04:44:42;101995.50;;;14.68
58102;BMP280;52034;51.926;6.320;2023-05-08T04:45:43;101989.78;;;14.66
58102;BMP280;52034;51.926;6.320;2023-05-08T04:46:43;101995.34;;;14.64
58102;BMP280;52034;51.926;6.320;2023-05-08T04:47:43;101985.31;;;14.61
58102;BMP280;52034;51.926;6.320;2023-05-08T04:48:44;101992.38;;;14.60
58102;BMP280;52034;51.926;6.320;2023-05-08T04:49:44;101993.72;;;14.59
58102;BMP280;52034;51.926;6.320;2023-05-08T04:50:45;101985.25;;;14.59
58102;BMP280;52034;51.926;6.320;2023-05-08T04:51:45;101991.47;;;14.56
58102;BMP280;52034;51.926;6.320;2023-05-08T04:52:45;101986.53;;;14.56
58102;BMP280;52034;51.926;6.320;2023-05-08T04:53:46;101991.47;;;14.56
58102;BMP280;52034;51.926;6.320;2023-05-08T04:54:46;101988.72;;;14.58
58102;BMP280;52034;51.926;6.320;2023-05-08T04:55:46;101983.00;;;14.56
58102;BMP280;52034;51.926;6.320;2023-05-08T04:56:47;101985.09;;;14.55
58102;BMP280;52034;51.926;6.320;2023-05-08T04:57:47;101994.47;;;14.60
58102;BMP280;52034;51.926;6.320;2023-05-08T04:58:48;101987.38;;;14.59
58102;BMP280;52034;51.926;6.320;2023-05-08T04:59:49;101988.81;;;14.60
58102;BMP280;52034;51.926;6.320;2023-05-08T05:00:49;101991.03;;;14.63
58102;BMP280;52034;51.926;6.320;2023-05-08T05:01:50;101985.38;;;14.63
58102;BMP280;52034;51.926;6.320;2023-05-08T05:02:50;101986.13;;;14.64
58102;BMP280;52034;51.926;6.320;2023-05-08T05:03:51;101991.94;;;14.68
58102;BMP280;52034;51.926;6.320;2023-05-08T05:04:52;101978.63;;;14.70
58102;BMP280;52034;51.926;6.320;2023-05-08T05:05:57;101988.63;;;14.73
58102;BMP280;52034;51.926;6.320;2023-05-08T05:06:58;101985.06;;;14.73
58102;BMP280;52034;51.926;6.320;2023-05-08T05:07:58;101990.22;;;14.78
58102;BMP280;52034;51.926;6.320;2023-05-08T05:08:58;102000.97;;;14.82
58102;BMP280;52034;51.926;6.320;2023-05-08T05:09:59;102001.13;;;14.86
58102;BMP280;52034;51.926;6.320;2023-05-08T05:11:00;101999.69;;;14.85
58102;BMP280;52034;51.926;6.320;2023-05-08T05:12:00;102001.88;;;14.86
58102;BMP280;52034;51.926;6.320;2023-05-08T05:13:01;102003.22;;;14.85
58102;BMP280;52034;51.926;6.320;2023-05-08T05:14:01;102006.19;;;14.89
58102;BMP280;52034;51.926;6.320;2023-05-08T05:15:02;102009.84;;;14.92
58102;BMP280;52034;51.926;6.320;2023-05-08T05:16:06;102019.28;;;14.98
58102;BMP280;52034;51.926;6.320;2023-05-08T05:17:06;102020.06;;;15.00
58102;BMP280;52034;51.926;6.320;2023-05-08T05:18:07;102019.41;;;15.02
58102;BMP280;52034;51.926;6.320;2023-05-08T05:19:07;102022.41;;;15.06
58102;BMP280;52034;51.926;6.320;2023-05-08T05:20:08;102016.09;;;15.07
58102;BMP280;52034;51.926;6.320;2023-05-08T05:21:09;102023.31;;;15.10
58102;BMP280;52034;51.926;6.320;2023-05-08T05:22:10;102028.22;;;15.10
58102;BMP280;52034;51.926;6.320;2023-05-08T05:23:11;102025.44;;;15.12
58102;BMP280;52034;51.926;6.320;2023-05-08T05:24:12;102025.31;;;15.08
58102;BMP280;52034;51.926;6.320;2023-05-08T05:25:12;102031.06;;;15.10
58102;BMP280;52034;51.926;6.320;2023-05-08T05:26:13;102022.41;;;15.06
58102;BMP280;52034;51.926;6.320;2023-05-08T05:27:14;102024.78;;;15.13
58102;BMP280;52034;51.926;6.320;2023-05-08T05:28:14;102035.00;;;15.20
58102;BMP280;52034;51.926;6.320;2023-05-08T05:29:15;102027.06;;;15.17
58102;BMP280;52034;51.926;6.320;2023-05-08T05:30:15;102029.88;;;15.17
58102;BMP280;52034;51.926;6.320;2023-05-08T05:31:16;102028.47;;;15.16
58102;BMP280;52034;51.926;6.320;2023-05-08T05:32:16;102029.75;;;15.13
58102;BMP280;52034;51.926;6.320;2023-05-08T05:33:17;102024.66;;;15.09
58102;BMP280;52034;51.926;6.320;2023-05-08T05:34:17;102030.81;;;15.04
58102;BMP280;52034;51.926;6.320;2023-05-08T05:35:18;102031.56;;;15.04
58102;BMP280;52034;51.926;6.320;2023-05-08T05:36:19;102032.28;;;15.05
58102;BMP280;52034;51.926;6.320;2023-05-08T05:37:20;102026.44;;;15.01
58102;BMP280;52034;51.926;6.320;2023-05-08T05:38:20;102027.84;;;15.00
58102;BMP280;52034;51.926;6.320;2023-05-08T05:39:20;102029.13;;;14.97
58102;BMP280;52034;51.926;6.320;2023-05-08T05:40:21;102034.78;;;14.97
58102;BMP280;52034;51.926;6.320;2023-05-08T05:41:22;102039.00;;;14.96
58102;BMP280;52034;51.926;6.320;2023-05-08T05:42:23;102046.84;;;14.98
58102;BMP280;52034;51.926;6.320;2023-05-08T05:43:24;102032.72;;;14.98
58102;BMP280;52034;51.926;6.320;2023-05-08T05:44:24;102043.38;;;14.99
58102;BMP280;52034;51.926;6.320;2023-05-08T05:45:25;102044.88;;;15.02
58102;BMP280;52034;51.926;6.320;2023-05-08T05:46:25;102039.22;;;15.02
58102;BMP280;52034;51.926;6.320;2023-05-08T05:47:31;102043.53;;;15.03
58102;BMP280;52034;51.926;6.320;2023-05-08T05:48:32;102048.56;;;15.06
58102;BMP280;52034;51.926;6.320;2023-05-08T05:49:32;102044.31;;;15.05
58102;BMP280;52034;51.926;6.320;2023-05-08T05:50:33;102048.78;;;15.10
58102;BMP280;52034;51.926;6.320;2023-05-08T05:51:34;102043.00;;;15.08
58102;BMP280;52034;51.926;6.320;2023-05-08T05:52:34;102050.19;;;15.11
58102;BMP280;52034;51.926;6.320;2023-05-08T05:53:34;102042.38;;;15.10
58102;BMP280;52034;51.926;6.320;2023-05-08T05:54:35;102044.47;;;15.09
58102;BMP280;52034;51.926;6.320;2023-05-08T05:55:36;102038.09;;;15.09
58102;BMP280;52034;51.926;6.320;2023-05-08T05:56:36;102046.66;;;15.11
58102;BMP280;52034;51.926;6.320;2023-05-08T05:57:37;102050.75;;;15.08
58102;BMP280;52034;51.926;6.320;2023-05-08T05:58:38;102050.75;;;15.08
58102;BMP280;52034;51.926;6.320;2023-05-08T05:59:40;102047.78;;;15.04
58102;BMP280;52034;51.926;6.320;2023-05-08T06:00:41;102047.78;;;15.04
58102;BMP280;52034;51.926;6.320;2023-05-08T06:01:42;102047.88;;;15.06
58102;BMP280;52034;51.926;6.320;2023-05-08T06:02:42;102045.69;;;15.04
58102;BMP280;52034;51.926;6.320;2023-05-08T06:03:45;102052.72;;;15.03
58102;BMP280;52034;51.926;6.320;2023-05-08T06:04:46;102045.69;;;15.04
58102;BMP280;52034;51.926;6.320;2023-05-08T06:05:47;102046.91;;;14.99
58102;BMP280;52034;51.926;6.320;2023-05-08T06:06:47;102050.47;;;15.00
58102;BMP280;52034;51.926;6.320;2023-05-08T06:07:48;102054.91;;;15.05
58102;BMP280;52034;51.926;6.320;2023-05-08T06:08:48;102052.06;;;15.05
58102;BMP280;52034;51.926;6.320;2023-05-08T06:09:49;102054.97;;;15.07
58102;BMP280;52034;51.926;6.320;2023-05-08T06:10:50;102055.78;;;15.09
58102;BMP280;52034;51.926;6.320;2023-05-08T06:11:50;102054.47;;;15.12
58102;BMP280;52034;51.926;6.320;2023-05-08T06:12:51;102055.28;;;15.15
58102;BMP280;52034;51.926;6.320;2023-05-08T06:13:51;102053.91;;;15.16
58102;BMP280;52034;51.926;6.320;2023-05-08T06:14:52;102064.00;;;15.21
58102;BMP280;52034;51.926;6.320;2023-05-08T06:15:54;102062.69;;;15.24